Time;durP1;ratioP1;P1;durP2;ratioP2;P2;SDS_P1;SDS_P2;PMS_P1;PMS_P2;Temp;Humidity;BMP_temperature;BMP_pressure;BME280_temperature;BME280_humidity;BME280_pressure;Samples;Min_cycle;Max_cycle;Signal;HPM_P1;HPM_P2
2023/09/13 00:01:40;;;;;;;47.83;28.35;;;19.00;99.90;;;;;;5003333;28;20113;-78
2023/09/13 00:04:05;;;;;;;49.42;28.35;;;19.00;99.90;;;;;;5004324;28;20026;-77
2023/09/13 00:06:31;;;;;;;45.72;27.80;;;19.00;99.90;;;;;;5004918;28;20023;-78
2023/09/13 00:08:57;;;;;;;47.72;28.60;;;19.00;99.90;;;;;;5003609;28;20030;-79
2023/09/13 00:11:23;;;;;;;50.92;29.30;;;19.00;99.90;;;;;;5003614;28;20037;-79
2023/09/13 00:13:49;;;;;;;52.05;29.63;;;19.00;99.90;;;;;;5003633;28;20058;-79
2023/09/13 00:16:15;;;;;;;54.30;31.08;;;18.90;99.90;;;;;;5002599;28;20030;-80
2023/09/13 00:18:41;;;;;;;55.85;31.35;;;19.00;99.90;;;;;;5004694;28;20027;-80
2023/09/13 00:21:10;;;;;;;59.30;33.13;;;18.90;99.90;;;;;;5002906;28;20074;-80
2023/09/13 00:23:36;;;;;;;58.80;33.40;;;18.90;99.90;;;;;;5002797;28;20042;-84
2023/09/13 00:26:01;;;;;;;58.50;33.33;;;18.90;99.90;;;;;;5003058;28;20097;-84
2023/09/13 00:28:27;;;;;;;59.25;33.47;;;18.90;99.90;;;;;;5003457;28;20085;-84
2023/09/13 00:30:53;;;;;;;60.50;34.30;;;18.80;99.90;;;;;;5003541;28;20089;-84
2023/09/13 00:33:19;;;;;;;64.55;37.20;;;18.80;99.90;;;;;;5003034;28;20823;-85
2023/09/13 00:35:45;;;;;;;65.45;36.45;;;18.80;99.90;;;;;;5002970;28;20074;-83
2023/09/13 00:38:11;;;;;;;66.45;36.42;;;18.80;99.90;;;;;;5003203;28;20050;-84
2023/09/13 00:40:36;;;;;;;62.92;34.42;;;18.80;99.90;;;;;;5003041;28;20022;-82
2023/09/13 00:43:02;;;;;;;62.90;35.05;;;18.80;99.90;;;;;;5002532;28;20444;-82
2023/09/13 00:45:31;;;;;;;62.75;35.05;;;18.80;99.90;;;;;;5002947;28;20034;-82
2023/09/13 00:47:57;;;;;;;71.85;36.60;;;18.70;99.90;;;;;;5004069;28;20034;-81
2023/09/13 00:50:23;;;;;;;65.97;36.33;;;18.70;99.90;;;;;;5002482;28;20065;-81
2023/09/13 00:52:49;;;;;;;70.20;37.13;;;18.70;99.90;;;;;;5002498;28;20045;-78
2023/09/13 00:55:17;;;;;;;68.93;37.47;;;18.80;99.90;;;;;;5002580;28;20038;-78
2023/09/13 00:57:44;;;;;;;76.13;39.83;;;18.80;99.90;;;;;;5002398;28;20027;-78
2023/09/13 01:00:10;;;;;;;76.00;39.72;;;18.80;99.90;;;;;;5002195;28;20049;-77
2023/09/13 01:02:40;;;;;;;76.85;39.80;;;18.80;99.90;;;;;;5003735;28;20029;-76
2023/09/13 01:05:09;;;;;;;71.18;38.72;;;18.80;99.90;;;;;;5003065;28;20082;-77
2023/09/13 01:07:35;;;;;;;76.95;40.28;;;18.80;99.90;;;;;;5003784;28;20034;-76
2023/09/13 01:10:02;;;;;;;72.53;37.22;;;18.80;99.90;;;;;;5002407;28;20426;-75
2023/09/13 01:12:27;;;;;;;91.88;41.53;;;18.80;99.90;;;;;;5003526;28;20022;-75
2023/09/13 01:14:53;;;;;;;79.20;40.17;;;18.80;99.90;;;;;;5001812;28;20464;-76
2023/09/13 01:17:42;;;;;;;86.05;42.55;;;18.80;99.90;;;;;;5001099;28;20106;-74
2023/09/13 01:20:38;;;;;;;91.60;42.47;;;18.80;99.90;;;;;;5003331;28;20030;-74
2023/09/13 01:23:22;;;;;;;101.47;45.05;;;18.90;99.90;;;;;;5003085;28;20027;-74
2023/09/13 01:26:06;;;;;;;88.45;43.13;;;18.80;99.90;;;;;;5009847;28;20412;-74
2023/09/13 01:28:46;;;;;;;106.00;45.83;;;18.80;99.90;;;;;;5001641;28;20062;-73
2023/09/13 01:31:13;;;;;;;101.38;44.55;;;18.90;99.90;;;;;;5001483;28;20037;-74
2023/09/13 01:33:39;;;;;;;102.18;46.88;;;18.90;99.90;;;;;;5002738;28;20081;-76
2023/09/13 01:36:11;;;;;;;122.35;51.15;;;18.80;99.90;;;;;;5099409;27;20394;-73
2023/09/13 01:38:37;;;;;;;115.72;50.08;;;18.90;99.90;;;;;;5097487;28;20024;-76
2023/09/13 01:41:09;;;;;;;120.57;50.28;;;18.80;99.90;;;;;;5097775;28;20020;-74
2023/09/13 01:43:35;;;;;;;126.07;52.72;;;18.90;99.90;;;;;;5098863;28;20028;-75
2023/09/13 01:46:03;;;;;;;169.43;57.92;;;18.80;99.90;;;;;;5097824;28;20028;-74
2023/09/13 01:48:29;;;;;;;153.27;58.17;;;18.80;99.90;;;;;;5097602;28;20024;-75
2023/09/13 01:50:56;;;;;;;148.07;57.25;;;18.80;99.90;;;;;;5098030;28;20036;-75
2023/09/13 01:53:22;;;;;;;131.65;55.65;;;18.80;99.90;;;;;;5097732;28;20047;-74
2023/09/13 01:55:48;;;;;;;121.32;53.33;;;18.80;99.90;;;;;;5098998;28;20036;-75
2023/09/13 01:58:13;;;;;;;145.18;58.58;;;18.80;99.90;;;;;;5098910;28;20066;-74
2023/09/13 02:00:40;;;;;;;153.85;60.88;;;18.80;99.90;;;;;;5098751;28;20017;-75
2023/09/13 02:03:06;;;;;;;181.65;62.20;;;18.80;99.90;;;;;;5095524;28;20486;-74
2023/09/13 02:05:32;;;;;;;144.38;58.20;;;18.80;99.90;;;;;;5097268;28;20029;-75
2023/09/13 02:07:58;;;;;;;182.90;61.28;;;18.80;99.90;;;;;;5096832;28;20032;-73
2023/09/13 02:10:24;;;;;;;220.27;62.30;;;18.80;99.90;;;;;;5097549;28;20024;-74
2023/09/13 02:12:50;;;;;;;157.70;62.30;;;18.80;99.90;;;;;;5098448;28;20027;-73
2023/09/13 02:15:15;;;;;;;215.43;64.60;;;18.80;99.90;;;;;;5098252;28;21059;-74
2023/09/13 02:17:41;;;;;;;157.70;58.45;;;18.80;99.90;;;;;;5097313;28;20039;-74
2023/09/13 02:20:11;;;;;;;192.48;61.50;;;18.80;99.90;;;;;;5097783;28;20031;-74
2023/09/13 02:22:36;;;;;;;223.13;65.47;;;18.80;99.90;;;;;;5096561;28;20028;-74
2023/09/13 02:25:03;;;;;;;161.63;60.53;;;18.80;99.90;;;;;;5097265;28;20062;-74
2023/09/13 02:27:29;;;;;;;189.63;64.05;;;18.80;99.90;;;;;;5096874;28;20024;-74
2023/09/13 02:29:54;;;;;;;170.77;60.13;;;18.80;99.90;;;;;;5098170;28;20031;-75
2023/09/13 02:32:20;;;;;;;174.40;59.15;;;18.80;99.90;;;;;;5097361;28;20020;-74
2023/09/13 02:34:46;;;;;;;189.02;59.72;;;18.80;99.90;;;;;;5098026;28;20074;-74
2023/09/13 02:37:11;;;;;;;228.98;60.17;;;18.80;99.90;;;;;;5097704;28;20123;-74
2023/09/13 02:39:39;;;;;;;134.15;52.75;;;18.80;99.90;;;;;;5098391;28;20036;-74
2023/09/13 02:42:06;;;;;;;137.85;49.45;;;18.80;99.90;;;;;;5098202;28;20028;-76
2023/09/13 02:44:32;;;;;;;117.55;46.67;;;18.80;99.90;;;;;;5097827;28;20505;-75
2023/09/13 02:46:58;;;;;;;106.88;42.22;;;18.80;99.90;;;;;;5086837;28;20062;-75
2023/09/13 02:49:24;;;;;;;84.32;33.70;;;18.70;99.90;;;;;;5082574;28;20033;-75
2023/09/13 02:51:51;;;;;;;53.10;23.13;;;18.70;99.90;;;;;;5082324;28;20108;-76
2023/09/13 02:54:17;;;;;;;51.70;23.73;;;18.60;99.90;;;;;;5084319;28;20032;-74
2023/09/13 02:56:44;;;;;;;48.78;21.33;;;18.60;99.90;;;;;;5083014;28;20020;-69
2023/09/13 02:59:10;;;;;;;45.60;21.15;;;18.50;99.90;;;;;;5083621;28;20043;-73
2023/09/13 03:01:35;;;;;;;52.20;18.65;;;18.40;99.90;;;;;;5084194;28;20029;-73
2023/09/13 03:04:02;;;;;;;67.72;15.48;;;18.40;99.90;;;;;;5083770;28;20028;-72
2023/09/13 03:06:29;;;;;;;38.10;12.88;;;18.40;99.90;;;;;;5083167;28;20131;-74
2023/09/13 03:08:56;;;;;;;63.22;14.85;;;18.30;99.90;;;;;;5082012;28;20025;-73
2023/09/13 03:11:22;;;;;;;73.45;13.40;;;18.20;99.90;;;;;;5081689;28;20024;-71
2023/09/13 03:13:47;;;;;;;118.30;15.15;;;18.10;99.90;;;;;;5081216;28;20029;-73
2023/09/13 03:16:21;;;;;;;27.42;8.88;;;18.00;99.90;;;;;;5080369;28;20020;-71
2023/09/13 03:18:49;;;;;;;32.17;9.50;;;18.00;99.90;;;;;;5081786;28;20059;-73
2023/09/13 03:21:17;;;;;;;28.30;10.13;;;18.00;99.90;;;;;;5083868;28;20035;-70
2023/09/13 03:23:48;;;;;;;21.20;8.50;;;17.90;99.90;;;;;;5083807;28;20028;-70
2023/09/13 03:26:25;;;;;;;21.10;8.65;;;17.90;99.90;;;;;;5080829;28;20509;-70
2023/09/13 03:28:52;;;;;;;24.90;8.65;;;17.90;99.90;;;;;;5082253;28;20031;-70
2023/09/13 03:31:23;;;;;;;27.25;8.93;;;17.90;99.90;;;;;;5080148;28;20127;-71
2023/09/13 03:33:50;;;;;;;23.00;8.40;;;17.80;99.90;;;;;;5083507;28;20048;-71
2023/09/13 03:36:16;;;;;;;19.95;7.88;;;17.80;99.90;;;;;;5082577;28;20024;-72
2023/09/13 03:38:43;;;;;;;13.35;6.78;;;17.80;99.90;;;;;;5082321;28;20025;-73
2023/09/13 03:41:11;;;;;;;15.07;6.28;;;17.80;99.90;;;;;;5081935;28;20025;-73
2023/09/13 03:43:37;;;;;;;14.93;5.47;;;17.70;99.90;;;;;;5081972;28;20017;-73
2023/09/13 03:46:05;;;;;;;16.35;6.35;;;17.70;99.90;;;;;;5080055;28;20068;-74
2023/09/13 03:48:31;;;;;;;17.10;5.50;;;17.70;99.90;;;;;;5082892;28;20021;-74
2023/09/13 03:50:57;;;;;;;7.53;5.15;;;17.70;99.90;;;;;;5081751;28;20470;-73
2023/09/13 03:53:24;;;;;;;9.45;5.20;;;17.70;99.90;;;;;;5082040;28;20040;-74
2023/09/13 03:55:50;;;;;;;11.35;5.93;;;17.60;99.90;;;;;;5081288;28;20035;-73
2023/09/13 03:58:16;;;;;;;11.00;5.95;;;17.60;99.90;;;;;;5082525;28;20050;-74
2023/09/13 04:00:42;;;;;;;11.18;5.63;;;17.60;99.90;;;;;;5078670;28;20029;-74
2023/09/13 04:03:07;;;;;;;11.75;6.32;;;17.50;99.90;;;;;;5082812;28;20054;-74
2023/09/13 04:05:33;;;;;;;11.82;6.47;;;17.50;99.90;;;;;;5082677;28;20634;-74
2023/09/13 04:08:00;;;;;;;9.38;5.90;;;17.50;99.90;;;;;;5082669;28;20029;-74
2023/09/13 04:10:25;;;;;;;13.05;6.85;;;17.50;99.90;;;;;;5082126;28;20103;-74
2023/09/13 04:12:52;;;;;;;11.40;6.85;;;17.50;99.90;;;;;;5083009;28;20444;-73
2023/09/13 04:15:17;;;;;;;21.48;7.47;;;17.50;99.90;;;;;;5082633;28;20041;-76
2023/09/13 04:17:43;;;;;;;13.48;7.72;;;17.40;99.90;;;;;;5081663;28;20028;-75
2023/09/13 04:20:10;;;;;;;14.75;7.28;;;17.40;99.90;;;;;;5082668;28;20024;-74
2023/09/13 04:22:35;;;;;;;13.05;8.07;;;17.30;99.90;;;;;;5080779;28;20031;-75
2023/09/13 04:25:02;;;;;;;18.70;8.77;;;17.30;99.90;;;;;;5082227;28;20111;-74
2023/09/13 04:27:27;;;;;;;16.23;8.90;;;17.30;99.90;;;;;;5081225;28;20063;-75
2023/09/13 04:29:57;;;;;;;19.40;9.00;;;17.30;99.90;;;;;;5082710;28;20025;-75
2023/09/13 04:32:24;;;;;;;17.05;9.15;;;17.30;99.90;;;;;;5080505;28;20362;-75
2023/09/13 04:34:52;;;;;;;16.23;8.70;;;17.20;99.90;;;;;;5080139;28;20052;-75
2023/09/13 04:37:18;;;;;;;21.35;10.43;;;17.20;99.90;;;;;;5080629;28;20054;-74
2023/09/13 04:39:43;;;;;;;16.38;8.95;;;17.20;99.90;;;;;;5080822;28;20027;-76
2023/09/13 04:42:10;;;;;;;15.20;9.02;;;17.20;99.90;;;;;;5082369;28;20031;-76
2023/09/13 04:44:36;;;;;;;17.73;9.40;;;17.10;99.90;;;;;;5081286;28;20037;-76
2023/09/13 04:47:02;;;;;;;17.70;9.15;;;17.10;99.90;;;;;;5082209;28;20020;-75
2023/09/13 04:49:29;;;;;;;18.92;10.23;;;17.10;99.90;;;;;;5082363;28;21114;-75
2023/09/13 04:51:57;;;;;;;23.15;10.88;;;17.10;99.90;;;;;;5081877;28;20055;-77
2023/09/13 04:54:23;;;;;;;22.48;9.68;;;17.00;99.90;;;;;;5080706;28;20040;-78
2023/09/13 04:56:50;;;;;;;20.05;9.20;;;17.00;99.90;;;;;;5080507;28;20055;-74
2023/09/13 04:59:16;;;;;;;22.17;9.52;;;16.90;99.90;;;;;;5079478;28;20032;-77
2023/09/13 05:01:42;;;;;;;18.10;8.60;;;16.90;99.90;;;;;;5080921;28;20116;-76
2023/09/13 05:04:08;;;;;;;15.77;8.75;;;16.80;99.90;;;;;;5080753;28;20029;-77
2023/09/13 05:06:34;;;;;;;17.67;8.52;;;16.80;99.90;;;;;;5079455;28;20028;-77
2023/09/13 05:08:59;;;;;;;19.48;9.25;;;16.80;99.90;;;;;;5081823;28;20028;-77
2023/09/13 05:11:26;;;;;;;18.58;9.77;;;16.80;99.90;;;;;;5080186;28;20023;-75
2023/09/13 05:14:11;;;;;;;25.52;10.52;;;16.80;99.90;;;;;;5081483;28;20032;-78
2023/09/13 05:16:36;;;;;;;19.13;10.40;;;16.80;99.90;;;;;;5080079;28;20028;-75
2023/09/13 05:19:02;;;;;;;27.90;11.38;;;16.70;99.90;;;;;;5080256;28;20120;-75
2023/09/13 05:21:28;;;;;;;23.15;11.10;;;16.70;99.90;;;;;;5080297;28;20063;-74
2023/09/13 05:23:55;;;;;;;27.38;11.40;;;16.70;99.90;;;;;;5079575;28;20036;-75
2023/09/13 05:26:22;;;;;;;20.95;10.82;;;16.60;99.90;;;;;;5078436;28;20097;-75
2023/09/13 05:28:47;;;;;;;28.23;12.18;;;16.60;99.90;;;;;;5081784;28;20032;-73
2023/09/13 05:31:14;;;;;;;25.42;10.98;;;16.60;99.90;;;;;;5079795;28;20051;-74
2023/09/13 05:33:40;;;;;;;30.77;11.02;;;16.60;99.90;;;;;;5079348;28;20481;-73
2023/09/13 05:36:10;;;;;;;29.20;10.70;;;16.60;99.90;;;;;;5078908;28;20082;-73
2023/09/13 05:38:36;;;;;;;19.45;9.30;;;16.60;99.90;;;;;;5078012;28;20024;-75
2023/09/13 05:41:12;;;;;;;23.23;10.20;;;16.60;99.90;;;;;;5080604;28;20052;-70
2023/09/13 05:43:39;;;;;;;23.92;9.57;;;16.60;99.90;;;;;;5081201;28;20107;-73
2023/09/13 05:46:05;;;;;;;23.98;9.55;;;16.60;99.90;;;;;;5079296;28;20051;-73
2023/09/13 05:48:31;;;;;;;21.52;9.05;;;16.60;99.90;;;;;;5081512;28;20025;-72
2023/09/13 05:50:58;;;;;;;18.00;8.70;;;16.50;99.90;;;;;;5078881;28;20040;-73
2023/09/13 05:53:24;;;;;;;17.92;8.95;;;16.50;99.90;;;;;;5079083;28;20024;-73
2023/09/13 05:55:50;;;;;;;17.65;7.90;;;16.50;99.90;;;;;;5079393;28;20548;-75
2023/09/13 05:58:17;;;;;;;20.38;8.70;;;16.50;99.90;;;;;;5079387;28;20020;-73
2023/09/13 06:00:46;;;;;;;15.52;7.18;;;16.50;99.90;;;;;;5077340;28;20025;-72
2023/09/13 06:03:11;;;;;;;14.15;6.70;;;16.50;99.90;;;;;;5077943;28;20035;-72
2023/09/13 06:05:37;;;;;;;12.57;6.40;;;16.40;99.90;;;;;;5078105;28;20025;-74
2023/09/13 06:08:03;;;;;;;9.85;5.70;;;16.30;99.90;;;;;;5078501;28;20021;-74
2023/09/13 06:10:28;;;;;;;10.25;5.50;;;16.30;99.90;;;;;;5075639;28;20033;-74
2023/09/13 06:12:54;;;;;;;11.55;5.20;;;16.20;99.90;;;;;;5079100;28;20036;-73
2023/09/13 06:15:20;;;;;;;14.80;4.82;;;16.10;99.90;;;;;;5078004;28;20116;-70
2023/09/13 06:17:45;;;;;;;10.35;4.50;;;16.00;99.90;;;;;;5076371;28;20032;-72
2023/09/13 06:20:11;;;;;;;15.20;4.40;;;15.90;99.90;;;;;;5076323;28;20024;-73
2023/09/13 06:22:37;;;;;;;9.35;4.25;;;15.80;99.90;;;;;;5082159;28;20029;-72
2023/09/13 06:25:03;;;;;;;10.23;3.78;;;15.80;99.90;;;;;;5083141;28;20035;-72
2023/09/13 06:27:29;;;;;;;15.57;4.30;;;15.70;99.90;;;;;;5083909;28;20035;-74
2023/09/13 06:29:54;;;;;;;12.15;3.70;;;15.60;99.90;;;;;;5083513;28;20056;-76
2023/09/13 06:32:20;;;;;;;10.32;3.70;;;15.50;99.90;;;;;;5084192;28;20028;-72
2023/09/13 06:34:46;;;;;;;13.80;3.72;;;15.40;99.90;;;;;;5082494;28;20059;-75
2023/09/13 06:37:12;;;;;;;11.32;3.15;;;15.40;99.90;;;;;;5082406;28;20044;-73
2023/09/13 06:39:38;;;;;;;17.05;3.75;;;15.30;99.90;;;;;;5083220;28;20119;-73
2023/09/13 06:42:04;;;;;;;15.55;3.80;;;15.30;99.90;;;;;;5083957;28;20033;-73
2023/09/13 06:44:29;;;;;;;14.27;3.58;;;15.30;99.90;;;;;;5081161;28;20025;-74
2023/09/13 06:46:56;;;;;;;11.40;3.88;;;15.30;99.90;;;;;;5081910;28;20036;-73
2023/09/13 06:49:21;;;;;;;16.95;4.35;;;15.30;99.90;;;;;;5082287;28;20052;-73
2023/09/13 06:51:47;;;;;;;13.65;4.28;;;15.30;99.90;;;;;;5081343;28;20035;-74
2023/09/13 06:54:13;;;;;;;12.15;3.88;;;15.30;99.90;;;;;;5082806;28;20055;-73
2023/09/13 06:56:42;;;;;;;13.65;4.05;;;15.40;99.90;;;;;;5082045;28;20017;-73
2023/09/13 06:59:07;;;;;;;10.85;3.40;;;15.40;99.90;;;;;;5080766;28;20021;-73
2023/09/13 07:01:33;;;;;;;12.73;3.53;;;15.30;99.90;;;;;;5081295;28;20066;-72
2023/09/13 07:03:58;;;;;;;9.02;3.17;;;15.30;99.90;;;;;;5082436;28;20029;-74
2023/09/13 07:06:24;;;;;;;10.55;3.10;;;15.20;99.90;;;;;;5081401;28;20393;-76
2023/09/13 07:08:50;;;;;;;13.82;2.75;;;15.10;99.90;;;;;;5079819;28;20043;-72
2023/09/13 07:11:16;;;;;;;15.13;2.95;;;15.10;99.90;;;;;;5079339;28;20028;-74
2023/09/13 07:13:42;;;;;;;9.90;2.55;;;15.10;99.90;;;;;;5082959;28;20024;-72
2023/09/13 07:16:08;;;;;;;16.77;3.00;;;15.00;99.90;;;;;;5082633;28;20505;-74
2023/09/13 07:18:34;;;;;;;16.42;2.80;;;15.00;99.90;;;;;;5082288;28;20028;-74
2023/09/13 07:21:00;;;;;;;7.20;2.55;;;15.00;99.90;;;;;;5082537;28;20055;-74
2023/09/13 07:23:27;;;;;;;17.65;3.00;;;14.90;99.90;;;;;;5084221;28;20021;-74
2023/09/13 07:25:53;;;;;;;17.60;3.17;;;15.00;99.90;;;;;;5079293;28;20036;-74
2023/09/13 07:28:20;;;;;;;10.90;2.30;;;14.90;99.90;;;;;;5075892;28;20060;-74
2023/09/13 07:30:46;;;;;;;13.32;3.08;;;15.00;99.90;;;;;;5078416;28;20036;-75
2023/09/13 07:33:11;;;;;;;5.57;2.42;;;15.00;99.90;;;;;;5079289;28;20051;-74
2023/09/13 07:35:37;;;;;;;14.13;2.70;;;15.00;99.90;;;;;;5081685;28;20098;-74
2023/09/13 07:38:03;;;;;;;7.97;2.40;;;15.10;99.90;;;;;;5081419;28;20557;-73
2023/09/13 07:40:29;;;;;;;10.88;2.22;;;15.00;99.90;;;;;;5081829;28;20024;-75
2023/09/13 07:42:54;;;;;;;11.40;2.47;;;15.00;99.90;;;;;;5082031;28;20089;-73
2023/09/13 07:45:20;;;;;;;9.30;2.20;;;15.00;99.90;;;;;;5080949;28;20021;-73
2023/09/13 07:47:45;;;;;;;13.30;2.47;;;14.90;99.90;;;;;;5077639;28;20029;-74
2023/09/13 07:50:40;;;;;;;10.75;2.42;;;14.90;99.90;;;;;;5082167;28;20052;-73
2023/09/13 07:53:06;;;;;;;10.00;2.08;;;14.90;99.90;;;;;;5081020;28;20564;-75
2023/09/13 07:55:32;;;;;;;8.27;2.17;;;14.80;99.90;;;;;;5080100;28;20052;-73
2023/09/13 07:57:59;;;;;;;9.98;2.72;;;14.80;99.90;;;;;;5082566;28;20028;-73
2023/09/13 08:00:25;;;;;;;7.93;2.13;;;14.90;99.90;;;;;;5082758;28;20016;-73
2023/09/13 08:02:50;;;;;;;11.73;2.38;;;14.80;99.90;;;;;;5081733;28;20017;-73
2023/09/13 08:05:16;;;;;;;7.15;1.90;;;14.80;99.90;;;;;;5082122;28;20709;-73
2023/09/13 08:07:46;;;;;;;9.20;2.22;;;14.80;99.90;;;;;;5081361;28;20111;-72
2023/09/13 08:10:12;;;;;;;14.82;2.17;;;14.70;99.90;;;;;;5081382;28;20470;-73
2023/09/13 08:12:38;;;;;;;8.90;2.55;;;14.80;99.90;;;;;;5079867;28;20032;-74
2023/09/13 08:15:05;;;;;;;12.80;2.42;;;14.90;99.90;;;;;;5079881;28;20147;-74
2023/09/13 08:17:33;;;;;;;11.65;2.50;;;15.00;99.90;;;;;;5080396;28;20111;-73
2023/09/13 08:20:01;;;;;;;10.32;2.10;;;15.00;99.90;;;;;;5080468;28;20024;-74
2023/09/13 08:22:27;;;;;;;9.10;2.55;;;15.10;99.90;;;;;;5079137;28;20435;-73
2023/09/13 08:24:53;;;;;;;13.57;2.65;;;15.20;99.90;;;;;;5078521;28;20025;-75
2023/09/13 08:27:19;;;;;;;12.60;2.53;;;15.20;99.90;;;;;;5080634;28;20465;-73
2023/09/13 08:29:44;;;;;;;14.60;2.47;;;15.30;99.90;;;;;;5077230;28;20029;-73
2023/09/13 08:32:10;;;;;;;10.70;2.80;;;15.40;99.90;;;;;;5080526;28;20112;-73
2023/09/13 08:34:36;;;;;;;10.68;2.33;;;15.40;99.90;;;;;;5077251;28;20048;-74
2023/09/13 08:37:02;;;;;;;11.27;2.67;;;15.40;99.90;;;;;;5079203;28;20033;-75
2023/09/13 08:39:29;;;;;;;9.73;2.33;;;15.40;99.90;;;;;;5079707;28;20027;-74
2023/09/13 08:41:58;;;;;;;12.88;2.35;;;15.50;99.90;;;;;;5080782;28;20058;-74
2023/09/13 08:44:26;;;;;;;10.48;2.58;;;15.50;99.90;;;;;;5078021;28;20043;-76
2023/09/13 08:46:56;;;;;;;16.40;2.58;;;15.50;99.90;;;;;;5079276;28;20035;-75
2023/09/13 08:49:23;;;;;;;13.38;2.90;;;15.50;99.90;;;;;;5077946;28;20088;-73
2023/09/13 08:51:51;;;;;;;16.52;2.45;;;15.50;99.90;;;;;;5078682;28;20028;-73
2023/09/13 08:54:17;;;;;;;14.07;2.28;;;15.50;99.90;;;;;;5076913;28;20359;-73
2023/09/13 08:56:45;;;;;;;11.25;2.53;;;15.50;99.90;;;;;;5079159;28;20036;-73
2023/09/13 08:59:12;;;;;;;6.97;2.00;;;15.50;99.90;;;;;;5077027;28;20082;-73
2023/09/13 09:01:38;;;;;;;15.32;2.70;;;15.60;99.90;;;;;;5078959;28;20558;-74
2023/09/13 09:04:04;;;;;;;8.50;2.35;;;15.60;99.90;;;;;;5077801;28;20031;-73
2023/09/13 09:06:31;;;;;;;15.25;2.40;;;15.60;99.90;;;;;;5078934;28;20024;-75
2023/09/13 09:08:58;;;;;;;17.45;2.55;;;15.60;99.90;;;;;;5074772;28;20054;-75
2023/09/13 09:11:26;;;;;;;11.32;2.13;;;15.60;99.90;;;;;;5078075;28;20039;-74
2023/09/13 09:13:55;;;;;;;8.60;2.08;;;15.60;99.90;;;;;;5079457;28;20111;-75
2023/09/13 09:16:22;;;;;;;8.63;1.92;;;15.60;99.90;;;;;;5078850;28;20520;-73
2023/09/13 09:18:50;;;;;;;9.75;2.00;;;15.60;99.90;;;;;;5079522;28;20048;-73
2023/09/13 09:21:17;;;;;;;15.00;2.42;;;15.60;99.90;;;;;;5078909;28;20031;-74
2023/09/13 09:23:43;;;;;;;11.15;1.95;;;15.60;99.90;;;;;;5077701;28;20032;-74
2023/09/13 09:26:09;;;;;;;7.97;2.38;;;15.50;99.90;;;;;;5078970;28;20074;-74
2023/09/13 09:28:35;;;;;;;11.13;2.10;;;15.60;99.90;;;;;;5081083;28;20035;-74
2023/09/13 09:31:05;;;;;;;15.85;2.15;;;15.60;99.90;;;;;;5078525;28;20024;-74
2023/09/13 09:33:31;;;;;;;9.10;2.17;;;15.60;99.90;;;;;;5079700;28;20028;-74
2023/09/13 09:36:00;;;;;;;9.55;2.50;;;15.70;99.90;;;;;;5075177;28;20052;-75
2023/09/13 09:38:28;;;;;;;9.73;2.38;;;15.80;99.90;;;;;;5075509;28;20059;-74
2023/09/13 09:41:06;;;;;;;8.20;1.70;;;15.80;99.90;;;;;;5079469;28;20138;-75
2023/09/13 09:43:32;;;;;;;7.85;1.67;;;15.80;99.90;;;;;;5081102;28;20106;-75
2023/09/13 09:45:58;;;;;;;9.77;2.05;;;15.80;99.90;;;;;;5080666;28;20036;-73
2023/09/13 09:48:27;;;;;;;5.45;1.60;;;15.70;99.90;;;;;;5079289;28;20036;-75
2023/09/13 09:50:57;;;;;;;8.90;2.13;;;15.70;99.90;;;;;;5080418;28;20084;-75
2023/09/13 09:53:30;;;;;;;9.68;1.83;;;15.60;99.90;;;;;;5078733;28;20025;-74
2023/09/13 09:55:55;;;;;;;12.63;1.98;;;15.60;99.90;;;;;;5078108;28;20041;-75
2023/09/13 09:58:22;;;;;;;11.13;2.15;;;15.60;99.90;;;;;;5082488;28;20099;-74
2023/09/13 10:00:52;;;;;;;13.05;2.40;;;15.60;99.90;;;;;;5083167;28;20032;-74
2023/09/13 10:03:19;;;;;;;12.90;2.15;;;15.60;99.90;;;;;;5084922;28;20032;-76
2023/09/13 10:05:53;;;;;;;7.35;1.90;;;15.70;99.90;;;;;;5084415;28;20017;-74
2023/09/13 10:08:18;;;;;;;13.43;2.00;;;15.70;99.90;;;;;;5085015;28;20032;-74
2023/09/13 10:10:44;;;;;;;5.43;1.85;;;15.70;99.90;;;;;;5083827;28;20021;-74
2023/09/13 10:13:14;;;;;;;11.68;2.13;;;15.60;99.90;;;;;;5083080;28;20020;-74
2023/09/13 10:15:40;;;;;;;10.02;2.33;;;15.70;99.90;;;;;;5084751;28;20066;-75
2023/09/13 10:18:07;;;;;;;9.57;1.92;;;15.70;99.90;;;;;;5084103;28;20020;-74
2023/09/13 10:20:34;;;;;;;9.77;1.83;;;15.70;99.90;;;;;;5081767;28;20032;-74
2023/09/13 10:23:02;;;;;;;9.55;2.30;;;15.70;99.90;;;;;;5084583;28;20027;-75
2023/09/13 10:25:32;;;;;;;6.72;1.88;;;15.70;99.90;;;;;;5083113;28;20082;-74
2023/09/13 10:28:00;;;;;;;10.95;2.05;;;15.80;99.90;;;;;;5084626;28;20023;-76
2023/09/13 10:30:29;;;;;;;7.38;2.00;;;15.80;99.90;;;;;;5082858;28;20367;-74
2023/09/13 10:33:00;;;;;;;7.20;1.98;;;15.80;99.90;;;;;;5080478;28;20034;-76
2023/09/13 10:35:32;;;;;;;5.38;2.15;;;15.80;99.90;;;;;;5081746;28;20467;-74
2023/09/13 10:38:14;;;;;;;10.55;2.60;;;15.80;99.90;;;;;;5082984;28;20385;-75
2023/09/13 10:40:55;;;;;;;5.90;2.20;;;15.70;99.90;;;;;;5083636;28;20033;-74
2023/09/13 10:43:22;;;;;;;8.90;2.10;;;15.60;99.90;;;;;;5084215;28;20393;-75
2023/09/13 10:45:48;;;;;;;10.40;2.60;;;15.50;99.90;;;;;;5083497;28;20054;-75
2023/09/13 10:48:16;;;;;;;7.93;2.10;;;15.40;99.90;;;;;;5083338;28;20035;-76
2023/09/13 10:50:41;;;;;;;5.78;2.10;;;15.40;99.90;;;;;;5082882;28;20119;-76
2023/09/13 10:53:09;;;;;;;8.07;2.42;;;15.40;99.90;;;;;;5080953;28;20079;-75
2023/09/13 10:55:36;;;;;;;6.70;2.28;;;15.30;99.90;;;;;;5079827;28;20096;-75
2023/09/13 10:58:04;;;;;;;6.70;2.35;;;15.30;99.90;;;;;;5081120;28;20032;-74
2023/09/13 11:00:34;;;;;;;6.32;1.98;;;15.30;99.90;;;;;;5081125;28;20024;-76
2023/09/13 11:03:00;;;;;;;6.10;2.00;;;15.30;99.90;;;;;;5081038;28;20488;-75
2023/09/13 11:05:28;;;;;;;6.22;2.45;;;15.30;99.90;;;;;;5080368;28;20032;-75
2023/09/13 11:07:55;;;;;;;6.75;2.45;;;15.30;99.90;;;;;;5081988;28;20084;-76
2023/09/13 11:10:21;;;;;;;5.20;2.13;;;15.30;99.90;;;;;;5081352;28;20043;-75
2023/09/13 11:12:50;;;;;;;6.85;2.10;;;15.40;99.90;;;;;;5081299;28;20112;-74
2023/09/13 11:15:24;;;;;;;3.40;1.60;;;15.50;99.90;;;;;;5080152;28;20032;-75
2023/09/13 11:18:13;;;;;;;7.55;1.77;;;15.60;99.90;;;;;;5080699;28;20123;-76
2023/09/13 11:20:40;;;;;;;6.03;1.73;;;15.60;99.90;;;;;;5079319;28;20059;-74
2023/09/13 11:23:11;;;;;;;6.03;1.77;;;15.60;99.90;;;;;;5075213;28;20036;-74
2023/09/13 11:25:49;;;;;;;5.20;1.42;;;15.70;99.90;;;;;;5081273;28;20028;-75
2023/09/13 11:28:27;;;;;;;5.20;1.35;;;15.70;99.90;;;;;;5079749;28;20032;-74
2023/09/13 11:30:59;;;;;;;5.25;1.60;;;15.60;99.90;;;;;;5083271;28;20711;-74
2023/09/13 11:33:27;;;;;;;9.95;2.05;;;15.60;99.90;;;;;;5079838;28;20495;-76
2023/09/13 11:35:55;;;;;;;5.07;1.70;;;15.50;99.90;;;;;;5078488;28;20444;-76
2023/09/13 11:38:23;;;;;;;7.18;1.80;;;15.50;99.90;;;;;;5074063;28;20044;-76
2023/09/13 11:40:49;;;;;;;7.00;2.22;;;15.40;99.90;;;;;;5081932;28;20114;-73
2023/09/13 11:43:26;;;;;;;4.25;1.90;;;15.40;99.90;;;;;;5082542;28;20036;-75
2023/09/13 11:45:57;;;;;;;5.40;2.15;;;15.20;99.90;;;;;;5078596;28;20033;-77
2023/09/13 11:48:28;;;;;;;5.00;1.65;;;15.30;99.90;;;;;;5081904;28;20036;-74
2023/09/13 11:50:55;;;;;;;4.85;2.08;;;15.30;99.90;;;;;;5081712;28;20036;-75
2023/09/13 11:53:26;;;;;;;4.35;2.30;;;15.30;99.90;;;;;;5078407;28;20025;-72
2023/09/13 11:55:56;;;;;;;6.15;2.17;;;15.40;99.90;;;;;;5079167;28;20037;-74
2023/09/13 11:58:36;;;;;;;6.72;2.30;;;15.40;99.90;;;;;;5080487;28;20063;-75
2023/09/13 12:01:04;;;;;;;4.07;2.15;;;15.40;99.90;;;;;;5080529;28;20032;-75
2023/09/13 12:03:39;;;;;;;4.78;2.05;;;15.50;99.90;;;;;;5080035;28;20036;-75
2023/09/13 12:06:06;;;;;;;8.50;2.50;;;15.60;99.90;;;;;;5079477;28;20092;-75
2023/09/13 12:08:34;;;;;;;6.38;2.45;;;15.80;99.90;;;;;;5080054;28;20484;-75
2023/09/13 12:11:08;;;;;;;6.45;2.47;;;15.90;99.90;;;;;;5080479;28;20027;-75
2023/09/13 12:13:43;;;;;;;6.82;2.92;;;16.10;99.90;;;;;;5078900;28;20020;-75
2023/09/13 12:16:09;;;;;;;6.53;2.65;;;16.20;99.90;;;;;;5081364;28;20033;-74
2023/09/13 12:18:36;;;;;;;5.93;2.80;;;16.40;99.90;;;;;;5079222;28;20042;-74
2023/09/13 12:21:02;;;;;;;4.95;2.63;;;16.70;99.90;;;;;;5082167;28;20032;-77
2023/09/13 12:23:33;;;;;;;9.25;2.65;;;17.00;99.90;;;;;;5081156;28;20020;-73
2023/09/13 12:25:59;;;;;;;6.95;2.53;;;17.30;99.90;;;;;;5078380;28;20044;-75
2023/09/13 12:28:26;;;;;;;4.45;2.05;;;17.40;99.90;;;;;;5082128;28;20025;-74
2023/09/13 12:30:53;;;;;;;6.20;2.65;;;17.70;99.90;;;;;;5078865;28;20025;-74
2023/09/13 12:33:20;;;;;;;4.85;2.15;;;17.80;99.90;;;;;;5080232;28;20021;-72
2023/09/13 12:35:47;;;;;;;8.98;2.60;;;18.10;99.90;;;;;;5082217;28;20042;-72
2023/09/13 12:38:13;;;;;;;4.57;2.20;;;18.30;99.90;;;;;;5082203;28;20090;-76